Ana Sayfa
METAR-TAF:

METAR-TAF

Havaalanları :

Gastonia Municipal Airport

Gastonia, Kuzey Carolina, Amerika Birleşik Devletleri

Enlem: 35-11-48N, Boylam: 081-09-21W, yükseklik: 243 m

Güncel hava durumu gözlemi

Rapor saat 02:54 UTC de 1 saat ve 1 dakika önce yapıldı.
Sakin rüzgar
Sıcaklık 26°C
Nem 79%
Basınç 1020 hPa
Görüş mesafesi: 16.1 km
Açık gökyüzü

METAR: KAKH 160254Z AUTO 00000KT 10SM CLR 26/22 A3012 RMK AO2 SLP190 T02610222 53009

Saat: 23:55 (03:55 UTC)


TAF: eksik

4.000'den fazla havaalanı için hava durumu gözlemleri ve tahminleri (METAR ve TAF raporları).

Kullanılabilir istasyonlar harita üzerinde sarı ve kırmızı noktalarla gösterilir.

İstasyonun adını görmek için fareyi noktanın üzerinde gezdirin.

Sonrasında hava gözlem ve tahminlerini görmek için tıklayın.

Haritayı değiştirmek için: yaklaştırmak için siyah artı işaretli yeşil düğmeye ve uzaklaştırmak için de eksi işaretli düğmeye hızla tıklayın; bitişik haritalar için yeşil okları kullanın.


METAR-TAF: